Time;durP1;ratioP1;P1;durP2;ratioP2;P2;SDS_P1;SDS_P2;PMS_P1;PMS_P2;Temp;Humidity;BMP_temperature;BMP_pressure;BME280_temperature;BME280_humidity;BME280_pressure;Samples;Min_cycle;Max_cycle;Signal;HPM_P1;HPM_P2
2021/03/12 00:02:20;;;;;;;6.75;4.50;;;;;;;23.83;32.39;95249.34;5029260;28;20025;-76
2021/03/12 00:04:46;;;;;;;6.35;5.28;;;;;;;23.78;32.70;95252.81;5045754;28;20033;-75
2021/03/12 00:07:11;;;;;;;7.07;5.10;;;;;;;23.71;32.63;95250.66;5028508;28;20425;-75
2021/03/12 00:09:37;;;;;;;5.88;4.60;;;;;;;23.78;32.90;95261.00;5028881;28;20619;-75
2021/03/12 00:12:02;;;;;;;6.47;4.80;;;;;;;23.77;32.95;95267.72;5028772;28;20041;-75
2021/03/12 00:14:28;;;;;;;7.43;4.97;;;;;;;23.71;32.97;95267.00;5029851;28;20386;-75
2021/03/12 00:16:54;;;;;;;7.47;4.97;;;;;;;23.66;33.01;95256.88;5029436;28;20029;-76
2021/03/12 00:19:20;;;;;;;6.05;4.70;;;;;;;23.53;32.51;95232.88;5028926;28;20109;-75
2021/03/12 00:21:45;;;;;;;7.47;4.88;;;;;;;23.68;32.57;95260.56;5028604;28;20024;-74
2021/03/12 00:24:11;;;;;;;6.70;4.75;;;;;;;23.68;33.15;95257.13;5029524;28;20179;-74
2021/03/12 00:26:36;;;;;;;7.43;5.07;;;;;;;23.50;32.66;95230.44;5029121;28;20552;-74
2021/03/12 00:29:02;;;;;;;6.57;4.68;;;;;;;23.65;32.96;95258.84;5028017;28;20030;-75
2021/03/12 00:31:27;;;;;;;6.80;4.60;;;;;;;23.66;32.76;95240.50;5029390;28;20418;-74
2021/03/12 00:33:52;;;;;;;6.45;4.90;;;;;;;23.63;32.58;95241.47;5029406;28;20033;-75
2021/03/12 00:36:18;;;;;;;7.13;4.93;;;;;;;23.61;32.58;95238.53;5029437;28;20029;-74
2021/03/12 00:38:43;;;;;;;6.55;5.07;;;;;;;23.55;32.66;95224.19;5044573;28;20095;-76
2021/03/12 00:41:09;;;;;;;7.70;4.97;;;;;;;23.57;32.66;95227.16;5029657;28;20041;-74
2021/03/12 00:43:36;;;;;;;7.65;5.13;;;;;;;23.56;33.02;95233.88;5029391;28;20026;-74
2021/03/12 00:46:06;;;;;;;7.35;5.10;;;;;;;23.55;33.00;95227.66;5029179;28;20126;-74
2021/03/12 00:48:32;;;;;;;7.63;5.00;;;;;;;23.55;32.96;95221.47;5044715;28;20108;-74
2021/03/12 00:50:58;;;;;;;7.32;4.93;;;;;;;23.53;32.90;95194.72;5029109;28;20060;-74
2021/03/12 00:53:24;;;;;;;7.03;4.82;;;;;;;23.53;32.78;95193.97;5029403;28;20457;-74
2021/03/12 00:55:50;;;;;;;7.47;5.20;;;;;;;23.50;32.58;95186.81;5028810;28;20025;-74
2021/03/12 00:58:15;;;;;;;7.20;4.90;;;;;;;23.51;32.72;95196.44;5026504;28;20130;-73
2021/03/12 01:00:41;;;;;;;8.52;5.30;;;;;;;23.50;33.07;95197.72;5029328;28;20049;-75
2021/03/12 01:03:07;;;;;;;7.93;5.50;;;;;;;23.47;33.06;95206.91;5023251;28;20017;-74
2021/03/12 01:05:33;;;;;;;7.20;5.13;;;;;;;23.46;33.04;95205.41;5025911;28;20052;-74
2021/03/12 01:07:58;;;;;;;7.43;5.30;;;;;;;23.47;32.81;95196.00;5013177;28;20026;-74
2021/03/12 01:10:24;;;;;;;8.10;5.85;;;;;;;23.45;33.14;95193.03;5021231;28;20029;-74
2021/03/12 01:12:50;;;;;;;7.93;5.47;;;;;;;23.45;32.81;95187.56;5031060;28;20489;-74
2021/03/12 01:15:17;;;;;;;7.60;5.18;;;;;;;23.43;32.83;95190.81;5029213;28;20021;-75
2021/03/12 01:17:43;;;;;;;7.15;5.40;;;;;;;23.40;32.53;95174.72;5029354;28;20022;-74
2021/03/12 01:20:10;;;;;;;8.70;5.55;;;;;;;23.44;33.33;95180.66;5029103;28;20021;-75
2021/03/12 01:22:36;;;;;;;7.13;5.53;;;;;;;23.41;32.88;95170.78;5027045;28;20029;-75
2021/03/12 01:25:08;;;;;;;6.97;5.13;;;;;;;23.40;32.83;95170.00;5027173;28;20022;-75
2021/03/12 01:27:38;;;;;;;7.35;5.43;;;;;;;23.38;32.98;95171.78;5044104;28;20133;-74
2021/03/12 01:30:07;;;;;;;;;;;;;;;23.36;32.79;95174.25;5029339;28;20022;-75
2021/03/12 01:32:33;;;;;;;7.47;5.53;;;;;;;23.36;32.80;95179.69;5028604;28;20395;-74
2021/03/12 01:34:58;;;;;;;8.32;5.80;;;;;;;23.36;33.36;95185.16;5028465;28;20037;-74
2021/03/12 01:37:23;;;;;;;7.80;5.65;;;;;;;23.36;33.28;95179.69;5027461;28;20033;-74
2021/03/12 01:39:49;;;;;;;6.97;5.15;;;;;;;23.34;32.77;95159.66;5028866;28;20128;-74
2021/03/12 01:42:14;;;;;;;8.75;5.72;;;;;;;23.34;32.88;95160.41;5027683;28;20778;-75
2021/03/12 01:44:40;;;;;;;7.68;5.38;;;;;;;23.35;32.88;95167.34;5023171;28;20041;-74
2021/03/12 01:47:05;;;;;;;7.53;5.40;;;;;;;23.32;33.12;95152.00;5028516;28;20032;-74
2021/03/12 01:49:30;;;;;;;7.80;5.40;;;;;;;23.33;32.85;95153.47;5028248;28;20052;-75
2021/03/12 01:51:56;;;;;;;8.13;5.55;;;;;;;23.33;33.15;95194.34;5028736;28;20044;-75
2021/03/12 01:54:21;;;;;;;7.70;5.45;;;;;;;23.32;33.00;95201.03;5028617;28;20499;-74
2021/03/12 01:56:47;;;;;;;7.50;5.53;;;;;;;23.27;32.66;95184.72;5028566;28;20025;-74
2021/03/12 01:59:12;;;;;;;6.85;5.38;;;;;;;23.31;32.87;95194.09;5027137;28;20030;-74
2021/03/12 02:01:38;;;;;;;8.13;6.03;;;;;;;23.26;32.88;95186.72;5028606;28;20022;-73
2021/03/12 02:04:03;;;;;;;9.00;5.72;;;;;;;23.30;32.80;95197.34;5028808;28;20099;-74
2021/03/12 02:06:29;;;;;;;8.63;5.75;;;;;;;23.28;32.84;95189.66;5028768;28;20021;-74
2021/03/12 02:08:54;;;;;;;8.50;5.57;;;;;;;23.29;32.74;95191.16;5028315;28;20065;-74
2021/03/12 02:11:20;;;;;;;9.60;6.30;;;;;;;23.21;33.06;95156.75;5026976;28;20065;-73
2021/03/12 02:13:54;;;;;;;8.10;5.50;;;;;;;23.25;32.86;95152.53;5043376;28;20021;-73
2021/03/12 02:16:40;;;;;;;9.20;5.95;;;;;;;23.25;33.00;95141.63;5027201;28;20033;-73
2021/03/12 02:19:27;;;;;;;8.05;5.55;;;;;;;23.23;32.92;95138.69;5026534;28;20026;-74
2021/03/12 02:21:54;;;;;;;7.88;6.10;;;;;;;23.22;33.02;95142.63;5018831;28;20033;-74
2021/03/12 02:24:24;;;;;;;8.32;5.72;;;;;;;23.18;33.12;95131.25;5012758;28;20045;-73
2021/03/12 02:27:09;;;;;;;;;;;;;;;23.24;33.25;95139.41;5029040;28;20021;-75
2021/03/12 02:29:35;;;;;;;9.32;6.10;;;;;;;23.09;33.00;95119.94;5013333;28;19917;-74
2021/03/12 02:32:02;;;;;;;8.35;5.57;;;;;;;23.21;32.76;95130.25;5007454;28;20033;-75
2021/03/12 02:34:32;;;;;;;10.02;6.57;;;;;;;23.23;32.94;95122.31;5008595;28;20045;-74
2021/03/12 02:36:59;;;;;;;7.68;5.13;;;;;;;23.16;33.15;95106.50;5026903;28;20030;-75
2021/03/12 02:39:26;;;;;;;9.65;5.88;;;;;;;23.19;33.09;95110.94;5011164;28;20395;-75
2021/03/12 02:41:51;;;;;;;9.45;6.03;;;;;;;23.04;32.89;95096.94;5029563;28;20109;-75
2021/03/12 02:44:17;;;;;;;8.85;6.38;;;;;;;23.18;33.24;95120.34;5030452;28;20045;-75
2021/03/12 02:46:43;;;;;;;8.73;5.65;;;;;;;23.18;32.90;95125.06;5031481;28;20495;-74
2021/03/12 02:49:08;;;;;;;8.52;5.78;;;;;;;23.18;32.94;95109.47;5030481;28;20041;-75
2021/03/12 02:51:34;;;;;;;9.25;5.90;;;;;;;23.17;33.30;95097.09;5030097;28;20025;-75
2021/03/12 02:54:00;;;;;;;10.00;6.45;;;;;;;23.19;33.13;95105.50;5030520;28;20057;-74
2021/03/12 02:56:25;;;;;;;9.05;6.20;;;;;;;23.18;32.92;95114.91;5046747;28;20025;-74
2021/03/12 02:58:51;;;;;;;8.63;5.88;;;;;;;23.03;32.76;95095.47;5031583;28;20029;-73
2021/03/12 03:01:17;;;;;;;10.68;6.65;;;;;;;23.10;32.88;95118.69;5046639;28;20108;-74
2021/03/12 03:03:43;;;;;;;9.27;6.47;;;;;;;23.10;32.91;95130.31;5030141;28;20022;-73
2021/03/12 03:06:08;;;;;;;9.05;6.45;;;;;;;23.02;33.02;95113.03;5030514;28;20025;-74
2021/03/12 03:08:35;;;;;;;9.40;6.55;;;;;;;23.02;33.07;95113.03;5030153;28;20114;-75
2021/03/12 03:11:01;;;;;;;9.98;6.30;;;;;;;22.90;32.92;95094.53;5030311;28;20049;-74
2021/03/12 03:13:36;;;;;;;10.02;7.20;;;;;;;22.99;32.94;95097.72;5031376;28;20079;-73
2021/03/12 03:16:04;;;;;;;8.27;5.80;;;;;;;22.98;33.26;95096.22;5031696;28;20033;-74
2021/03/12 03:18:34;;;;;;;9.32;6.60;;;;;;;22.98;33.28;95100.94;5034224;28;20700;-74
2021/03/12 03:20:59;;;;;;;9.00;6.43;;;;;;;22.96;33.35;95081.66;5033207;28;20123;-74
2021/03/12 03:23:24;;;;;;;9.57;6.63;;;;;;;23.00;33.36;95071.97;5047317;28;20037;-75
2021/03/12 03:25:50;;;;;;;8.68;6.30;;;;;;;23.01;33.12;95078.88;5021149;28;20030;-74
2021/03/12 03:28:15;;;;;;;9.52;6.65;;;;;;;23.01;33.23;95086.31;5024358;28;20034;-74
2021/03/12 03:30:41;;;;;;;9.43;6.25;;;;;;;23.02;33.18;95085.81;5034024;28;20030;-73
2021/03/12 03:33:06;;;;;;;8.85;6.20;;;;;;;23.02;32.96;95080.38;5036425;28;20026;-73
2021/03/12 03:35:32;;;;;;;8.75;6.40;;;;;;;23.02;33.01;95085.81;5039467;28;20036;-74
2021/03/12 03:37:57;;;;;;;10.57;6.80;;;;;;;23.02;33.41;95080.38;5039923;28;20025;-73
2021/03/12 03:40:22;;;;;;;10.07;6.05;;;;;;;22.97;33.19;95067.53;5021734;28;20034;-76
2021/03/12 03:42:48;;;;;;;8.98;6.40;;;;;;;23.00;33.14;95082.84;5032607;28;20021;-74
2021/03/12 03:45:14;;;;;;;11.30;7.40;;;;;;;23.00;32.99;95090.28;5032382;28;20034;-75
2021/03/12 03:47:40;;;;;;;10.98;7.15;;;;;;;23.00;33.31;95088.31;5026739;28;20518;-74
2021/03/12 03:50:06;;;;;;;9.95;6.68;;;;;;;22.92;33.14;95064.81;5035370;28;20032;-73
2021/03/12 03:52:32;;;;;;;9.85;6.57;;;;;;;22.97;33.46;95083.88;5034446;28;20049;-73
2021/03/12 03:54:57;;;;;;;10.25;6.88;;;;;;;22.98;33.23;95079.88;5031096;28;20025;-73
2021/03/12 03:57:23;;;;;;;9.77;6.68;;;;;;;22.97;33.12;95075.69;5029041;28;20034;-74
2021/03/12 03:59:48;;;;;;;11.13;7.00;;;;;;;23.00;32.98;95071.22;5029316;28;20033;-74
2021/03/12 04:02:15;;;;;;;10.65;7.10;;;;;;;22.99;32.96;95069.75;5029733;28;20513;-74
2021/03/12 04:04:43;;;;;;;9.40;7.00;;;;;;;22.99;33.14;95075.94;5029685;28;20018;-75
2021/03/12 04:07:09;;;;;;;10.50;7.47;;;;;;;22.98;33.19;95071.72;5029340;28;20031;-76
2021/03/12 04:09:34;;;;;;;9.23;6.50;;;;;;;22.78;33.25;95043.34;5028528;28;20034;-75
2021/03/12 04:12:00;;;;;;;10.70;6.80;;;;;;;23.00;32.95;95060.31;5028831;28;20053;-73
2021/03/12 04:14:25;;;;;;;10.93;7.50;;;;;;;22.98;32.96;95065.53;5028799;28;20029;-74
2021/03/12 04:16:51;;;;;;;11.07;7.65;;;;;;;22.94;33.16;95074.00;5028725;28;20034;-73
2021/03/12 04:19:16;;;;;;;10.60;7.20;;;;;;;22.84;33.19;95058.44;5024385;28;20037;-75
2021/03/12 04:21:42;;;;;;;10.45;7.47;;;;;;;22.97;33.14;95083.88;5027830;28;20025;-75
2021/03/12 04:24:07;;;;;;;11.10;7.72;;;;;;;22.96;33.15;95071.50;5029703;28;20021;-75
2021/03/12 04:26:33;;;;;;;11.23;7.53;;;;;;;22.95;33.13;95064.56;5028661;28;20025;-75
2021/03/12 04:28:59;;;;;;;10.27;7.00;;;;;;;22.98;33.26;95069.00;5028356;28;20502;-75
2021/03/12 04:31:24;;;;;;;10.65;6.95;;;;;;;22.69;33.04;95030.03;5023431;28;20030;-74
2021/03/12 04:33:50;;;;;;;10.13;7.60;;;;;;;22.69;33.27;95024.59;5010749;28;20033;-74
2021/03/12 04:36:15;;;;;;;10.10;6.95;;;;;;;22.97;33.23;95056.63;5028330;28;20082;-74
2021/03/12 04:38:42;;;;;;;9.57;6.88;;;;;;;22.97;33.23;95062.09;5028376;28;20029;-73
2021/03/12 04:41:07;;;;;;;11.50;7.13;;;;;;;22.96;33.06;95060.59;5028930;28;20091;-74
2021/03/12 04:43:33;;;;;;;10.70;7.30;;;;;;;22.97;33.11;95072.22;5030611;28;20490;-73
2021/03/12 04:46:02;;;;;;;10.38;7.47;;;;;;;23.00;33.34;95077.41;5037802;28;20430;-73
2021/03/12 04:48:28;;;;;;;11.40;7.18;;;;;;;22.87;33.21;95053.94;5060065;28;20030;-71
2021/03/12 04:50:54;;;;;;;11.60;7.78;;;;;;;23.03;33.16;95078.38;5018605;28;20037;-70
2021/03/12 04:53:19;;;;;;;11.60;7.15;;;;;;;23.06;32.96;95080.09;5034727;28;20043;-74
2021/03/12 04:55:45;;;;;;;13.93;7.43;;;;;;;23.08;33.02;95072.16;5033873;28;20037;-72
2021/03/12 04:58:10;;;;;;;10.60;7.22;;;;;;;23.10;33.23;95075.84;5059572;28;20017;-71
2021/03/12 05:00:35;;;;;;;12.10;7.40;;;;;;;23.13;33.18;95085.72;5027768;28;20487;-72
2021/03/12 05:03:01;;;;;;;9.27;7.28;;;;;;;23.18;33.04;95070.59;5033578;28;20494;-70
2021/03/12 05:05:26;;;;;;;10.52;7.38;;;;;;;23.02;32.83;95036.78;5041418;28;20502;-71
2021/03/12 05:07:53;;;;;;;11.43;7.25;;;;;;;23.23;32.96;95076.00;5012115;28;20021;-74
2021/03/12 05:10:18;;;;;;;11.38;7.95;;;;;;;23.28;32.53;95058.88;5026911;28;20083;-74
2021/03/12 05:12:43;;;;;;;11.02;7.60;;;;;;;23.27;32.43;95054.66;5025992;28;20030;-75
2021/03/12 05:15:10;;;;;;;10.52;7.47;;;;;;;23.37;32.77;95055.81;5031626;28;20102;-73
2021/03/12 05:17:35;;;;;;;12.15;8.23;;;;;;;23.32;32.01;95018.47;5028451;28;20021;-74
2021/03/12 05:20:01;;;;;;;13.02;7.60;;;;;;;23.59;32.47;95055.66;5034927;28;20027;-75
2021/03/12 05:22:26;;;;;;;11.75;7.90;;;;;;;23.70;32.34;95066.47;5027951;28;20113;-73
2021/03/12 05:24:52;;;;;;;10.80;7.95;;;;;;;23.79;31.89;95080.50;5046722;28;20033;-71
2021/03/12 05:27:18;;;;;;;11.35;7.63;;;;;;;23.89;31.46;95087.13;5016712;28;20378;-74
2021/03/12 05:29:43;;;;;;;10.25;7.75;;;;;;;23.94;31.58;95081.59;5033858;28;20127;-80
2021/03/12 05:32:09;;;;;;;11.48;7.93;;;;;;;24.10;31.98;95105.25;5027533;28;20036;-70
2021/03/12 05:34:34;;;;;;;10.77;7.47;;;;;;;24.19;31.67;95096.72;5028024;28;20033;-72
2021/03/12 05:36:59;;;;;;;11.25;7.60;;;;;;;24.27;31.61;95103.06;5028255;28;20407;-75
2021/03/12 05:39:25;;;;;;;10.80;8.50;;;;;;;24.35;31.54;95112.22;5045426;28;20025;-74
2021/03/12 05:41:50;;;;;;;10.95;7.75;;;;;;;24.44;30.90;95117.34;5034488;28;20044;-71
2021/03/12 05:44:16;;;;;;;10.85;7.60;;;;;;;24.50;31.21;95126.19;5027191;28;20506;-75
2021/03/12 05:46:42;;;;;;;10.23;7.20;;;;;;;24.59;30.92;95112.19;5025234;28;20095;-72
2021/03/12 05:49:08;;;;;;;11.13;7.60;;;;;;;24.63;30.76;95082.59;5023737;28;20017;-76
2021/03/12 05:51:34;;;;;;;11.40;7.70;;;;;;;24.62;30.92;95072.91;5018623;28;20026;-73
2021/03/12 05:54:01;;;;;;;11.50;7.82;;;;;;;24.83;30.87;95099.94;5028471;28;20044;-73
2021/03/12 05:56:27;;;;;;;11.75;8.02;;;;;;;24.88;30.77;95110.06;5039611;28;20095;-76
2021/03/12 05:58:52;;;;;;;11.75;7.10;;;;;;;24.83;30.62;95083.56;5030067;28;20025;-72
2021/03/12 06:01:18;;;;;;;10.43;7.20;;;;;;;24.82;30.45;95065.69;5005823;28;20490;-75
2021/03/12 06:03:44;;;;;;;11.32;7.70;;;;;;;25.04;30.64;95109.13;5027349;28;20037;-76
2021/03/12 06:06:09;;;;;;;10.10;7.60;;;;;;;25.07;30.37;95112.84;5009177;28;20029;-75
2021/03/12 06:08:35;;;;;;;10.57;7.88;;;;;;;25.12;30.41;95115.47;5020921;28;20021;-74
2021/03/12 06:11:00;;;;;;;19.15;12.25;;;;;;;25.17;28.24;95125.59;5040460;28;20073;-73
2021/03/12 06:13:27;;;;;;;12.65;8.23;;;;;;;25.18;29.78;95135.25;5030154;28;20025;-74
2021/03/12 06:15:53;;;;;;;14.43;9.43;;;;;;;25.11;29.45;95146.81;5035833;28;20457;-73
2021/03/12 06:18:25;;;;;;;11.23;7.63;;;;;;;25.22;29.73;95141.19;5028388;28;20116;-74
2021/03/12 06:20:54;;;;;;;15.38;10.85;;;;;;;25.27;27.94;95137.63;5029281;28;20112;-72
2021/03/12 06:23:40;;;;;;;13.60;9.43;;;;;;;25.25;29.00;95140.16;5030637;28;20510;-71
2021/03/12 06:26:06;;;;;;;11.95;7.95;;;;;;;25.19;29.57;95114.88;5035983;28;20041;-70
2021/03/12 06:28:31;;;;;;;11.70;8.10;;;;;;;25.27;29.78;95115.75;5047910;28;20025;-71
2021/03/12 06:30:57;;;;;;;10.77;7.35;;;;;;;25.48;29.54;95127.63;5039539;28;20021;-72
2021/03/12 06:33:26;;;;;;;11.73;7.90;;;;;;;25.50;29.39;95122.38;5042953;28;20033;-71
2021/03/12 06:35:51;;;;;;;11.45;8.32;;;;;;;25.58;29.61;95128.72;5040264;28;20025;-71
2021/03/12 06:38:17;;;;;;;11.27;7.60;;;;;;;25.60;29.32;95137.88;5032020;28;20976;-71
2021/03/12 06:40:42;;;;;;;11.90;8.95;;;;;;;25.59;28.33;95141.88;5034886;28;20072;-71
2021/03/12 06:43:15;;;;;;;12.85;9.27;;;;;;;25.68;29.11;95165.38;5042324;28;20067;-70
2021/03/12 06:45:40;;;;;;;10.90;8.10;;;;;;;25.72;29.17;95177.50;5047978;28;20037;-71
2021/03/12 06:48:16;;;;;;;10.65;7.90;;;;;;;25.72;29.26;95182.25;5043723;28;20016;-71
2021/03/12 06:51:06;;;;;;;11.00;7.97;;;;;;;25.77;29.10;95200.56;5042542;28;20752;-71
2021/03/12 06:53:35;;;;;;;10.52;8.43;;;;;;;25.85;29.21;95200.16;5039176;28;20134;-70
2021/03/12 06:56:02;;;;;;;9.90;7.87;;;;;;;25.82;28.82;95182.06;5045634;28;20032;-73
2021/03/12 06:58:28;;;;;;;10.20;7.35;;;;;;;25.93;29.12;95189.34;5032547;28;20111;-71
2021/03/12 07:00:53;;;;;;;10.05;7.53;;;;;;;25.78;29.02;95185.63;5042654;28;20024;-70
2021/03/12 07:03:34;;;;;;;11.45;7.68;;;;;;;25.96;29.19;95202.75;5063595;28;20458;-72
2021/03/12 07:06:17;;;;;;;9.57;7.43;;;;;;;25.83;28.83;95183.53;5047133;28;20271;-71
2021/03/12 07:08:45;;;;;;;12.18;7.80;;;;;;;26.04;28.65;95192.66;5037584;28;20469;-75
2021/03/12 07:11:16;;;;;;;9.90;7.50;;;;;;;26.19;28.93;95209.34;5030227;28;20053;-74
2021/03/12 07:13:42;;;;;;;11.48;7.10;;;;;;;26.26;28.85;95221.66;5024388;28;20025;-73
2021/03/12 07:16:07;;;;;;;10.43;7.65;;;;;;;26.27;29.40;95221.16;5037389;28;20029;-73
2021/03/12 07:18:33;;;;;;;11.20;7.32;;;;;;;26.32;28.65;95212.13;5026177;28;20552;-73
2021/03/12 07:20:58;;;;;;;10.23;6.75;;;;;;;26.33;29.05;95213.59;5026796;28;20474;-72
2021/03/12 07:23:24;;;;;;;10.98;7.05;;;;;;;26.33;28.59;95219.09;5025842;28;20029;-74
2021/03/12 07:25:49;;;;;;;9.13;6.90;;;;;;;26.33;28.65;95208.13;5043471;28;20017;-72
2021/03/12 07:28:15;;;;;;;11.52;7.50;;;;;;;26.31;28.63;95210.66;5021308;28;20026;-73
2021/03/12 07:30:42;;;;;;;10.10;7.20;;;;;;;26.17;28.48;95192.69;5031271;28;20075;-72
2021/03/12 07:33:08;;;;;;;10.27;8.13;;;;;;;26.25;28.89;95196.31;5036874;28;20032;-74
2021/03/12 07:35:34;;;;;;;10.55;7.43;;;;;;;26.23;28.66;95204.28;5023693;28;20140;-76
2021/03/12 07:37:59;;;;;;;10.90;6.63;;;;;;;25.98;28.56;95156.44;5040964;28;20036;-73
2021/03/12 07:40:26;;;;;;;9.38;7.13;;;;;;;26.06;28.91;95192.88;5041058;28;20021;-70
2021/03/12 07:42:51;;;;;;;11.05;7.80;;;;;;;25.90;28.75;95180.22;5059571;28;20079;-69
2021/03/12 07:45:20;;;;;;;10.48;7.13;;;;;;;25.99;29.06;95196.25;5031519;28;20686;-70
2021/03/12 07:47:48;;;;;;;10.27;7.35;;;;;;;25.80;29.00;95157.22;5040000;28;20029;-70
2021/03/12 07:50:24;;;;;;;10.63;7.90;;;;;;;25.89;28.91;95180.72;5024923;28;20034;-71
2021/03/12 07:52:50;;;;;;;10.30;7.38;;;;;;;25.82;28.77;95193.00;5023817;28;20560;-70
2021/03/12 07:55:34;;;;;;;11.90;7.70;;;;;;;25.76;28.90;95193.63;5027909;28;20025;-71
2021/03/12 07:58:00;;;;;;;10.05;7.07;;;;;;;25.59;29.13;95168.47;5030377;28;20029;-69
2021/03/12 08:00:25;;;;;;;11.00;7.50;;;;;;;25.66;29.38;95174.09;5044429;28;20037;-70
2021/03/12 08:03:01;;;;;;;10.45;7.90;;;;;;;25.46;29.44;95143.81;5018632;28;20017;-69
2021/03/12 08:05:29;;;;;;;11.90;7.43;;;;;;;25.55;29.34;95151.66;5035133;28;20025;-70
2021/03/12 08:07:55;;;;;;;10.68;7.70;;;;;;;25.40;29.26;95137.69;5035835;28;20498;-68
2021/03/12 08:10:22;;;;;;;10.02;7.70;;;;;;;25.47;29.10;95139.81;5026573;28;20025;-70
2021/03/12 08:12:49;;;;;;;12.43;7.85;;;;;;;25.39;29.55;95161.53;5024688;28;20109;-70
2021/03/12 08:15:27;;;;;;;9.98;7.65;;;;;;;25.36;29.52;95161.84;5041386;28;20041;-70
2021/03/12 08:17:58;;;;;;;11.65;8.07;;;;;;;25.29;29.63;95162.47;5031480;28;20038;-70
2021/03/12 08:20:32;;;;;;;10.27;7.93;;;;;;;25.24;29.63;95166.00;5029955;28;20033;-71
2021/03/12 08:22:58;;;;;;;10.43;7.28;;;;;;;25.19;29.69;95169.56;5042977;28;20026;-71
2021/03/12 08:25:34;;;;;;;11.18;8.48;;;;;;;25.15;29.70;95179.31;5030518;28;20034;-71
2021/03/12 08:28:00;;;;;;;11.55;8.15;;;;;;;25.09;29.63;95198.50;5016521;28;20502;-69
2021/03/12 08:30:26;;;;;;;10.30;7.68;;;;;;;25.05;29.58;95195.34;5014947;28;20041;-71
2021/03/12 08:32:55;;;;;;;12.13;8.02;;;;;;;24.98;30.04;95198.59;5026105;28;20080;-74
2021/03/12 08:35:39;;;;;;;12.60;8.20;;;;;;;24.94;29.50;95191.94;5032928;28;20041;-68
2021/03/12 08:38:10;;;;;;;12.82;7.80;;;;;;;24.91;30.15;95204.63;5032854;28;20036;-76
2021/03/12 08:40:42;;;;;;;11.38;7.75;;;;;;;24.75;30.15;95191.16;5041241;28;20075;-72
2021/03/12 08:43:09;;;;;;;10.85;7.75;;;;;;;24.83;30.24;95209.22;5034316;28;20497;-71
2021/03/12 08:45:53;;;;;;;11.50;7.78;;;;;;;24.82;30.61;95206.25;5026824;28;20037;-71
2021/03/12 08:48:20;;;;;;;10.63;7.72;;;;;;;24.79;30.38;95199.09;5047689;28;20047;-70
2021/03/12 08:50:54;;;;;;;12.48;8.55;;;;;;;24.77;30.84;95194.16;5080612;28;20021;-71
2021/03/12 08:53:22;;;;;;;8.98;7.10;;;;;;;24.73;30.42;95188.22;5052903;28;20033;-69
2021/03/12 08:55:49;;;;;;;11.80;7.40;;;;;;;24.73;30.52;95187.50;5045174;28;20024;-69
2021/03/12 08:58:18;;;;;;;10.13;7.78;;;;;;;24.72;30.89;95191.47;5029153;28;20033;-69
2021/03/12 09:00:45;;;;;;;10.60;7.53;;;;;;;24.71;30.49;95195.44;5040902;28;20090;-69
2021/03/12 09:03:14;;;;;;;12.95;7.75;;;;;;;24.68;30.94;95199.19;5034164;28;20021;-70
2021/03/12 09:05:40;;;;;;;12.40;7.50;;;;;;;24.59;30.82;95185.91;5038328;28;20029;-69
2021/03/12 09:08:06;;;;;;;11.32;7.63;;;;;;;24.62;30.55;95190.31;5050458;28;20030;-71
2021/03/12 09:10:31;;;;;;;13.68;7.75;;;;;;;24.59;30.76;95177.72;5019749;28;20042;-70
2021/03/12 09:12:57;;;;;;;10.70;7.85;;;;;;;24.57;30.97;95185.66;5028293;28;20029;-71
2021/03/12 09:15:23;;;;;;;12.02;7.93;;;;;;;24.54;30.64;95182.00;5027555;28;20040;-71
2021/03/12 09:17:49;;;;;;;10.68;7.50;;;;;;;24.51;30.96;95176.81;5022937;28;20469;-71
2021/03/12 09:20:15;;;;;;;10.52;7.53;;;;;;;24.50;31.04;95175.34;5023993;28;20026;-71
2021/03/12 09:22:52;;;;;;;9.90;7.78;;;;;;;24.46;30.77;95174.88;5033489;28;20037;-71
2021/03/12 09:25:31;;;;;;;9.95;7.90;;;;;;;24.45;30.80;95167.94;5021703;28;20106;-69
2021/03/12 09:27:58;;;;;;;11.02;7.65;;;;;;;24.41;31.17;95151.13;5024775;28;20052;-69
2021/03/12 09:30:31;;;;;;;10.05;7.88;;;;;;;24.44;31.16;95166.47;5033900;28;20033;-70
2021/03/12 09:32:57;;;;;;;9.65;7.47;;;;;;;24.42;30.87;95163.50;5023602;28;20024;-70
2021/03/12 09:35:24;;;;;;;11.15;7.90;;;;;;;24.40;30.76;95150.34;5026781;28;20040;-75
2021/03/12 09:37:54;;;;;;;11.02;7.90;;;;;;;24.22;31.15;95128.44;5035459;28;20033;-74
2021/03/12 09:40:40;;;;;;;9.20;7.05;;;;;;;24.34;31.50;95146.22;5036825;28;20036;-76
2021/03/12 09:43:06;;;;;;;11.88;7.50;;;;;;;24.33;31.05;95161.09;5027843;28;20863;-70
2021/03/12 09:45:32;;;;;;;10.73;7.20;;;;;;;24.20;31.40;95141.13;5034528;28;20021;-70
2021/03/12 09:47:57;;;;;;;11.40;7.18;;;;;;;24.25;30.87;95154.72;5035926;28;20112;-70
2021/03/12 09:50:24;;;;;;;10.20;7.38;;;;;;;24.30;31.49;95151.19;5036227;28;20029;-71
2021/03/12 09:52:56;;;;;;;10.82;7.50;;;;;;;23.99;31.35;95099.91;5041110;28;20017;-70
2021/03/12 09:55:22;;;;;;;9.40;7.40;;;;;;;24.19;31.51;95124.00;5035812;28;20033;-70
2021/03/12 09:57:48;;;;;;;11.93;7.70;;;;;;;24.00;31.23;95101.38;5021047;28;20029;-70
2021/03/12 10:00:32;;;;;;;11.02;7.65;;;;;;;24.15;31.33;95133.72;5039470;28;20017;-69
2021/03/12 10:02:58;;;;;;;9.60;7.72;;;;;;;24.21;31.17;95137.88;5035427;28;20075;-70
2021/03/12 10:05:24;;;;;;;10.25;7.43;;;;;;;24.07;31.52;95133.56;5030444;28;20045;-72
2021/03/12 10:07:49;;;;;;;9.68;7.25;;;;;;;24.21;31.72;95148.78;5037420;28;20020;-71
2021/03/12 10:10:26;;;;;;;10.95;7.47;;;;;;;24.21;31.44;95140.59;5030882;28;20426;-71
2021/03/12 10:12:53;;;;;;;10.82;7.82;;;;;;;24.22;31.61;95133.19;5032215;28;20148;-70
2021/03/12 10:15:23;;;;;;;8.95;7.13;;;;;;;24.19;31.81;95124.00;5031989;28;20029;-70
2021/03/12 10:17:48;;;;;;;9.27;6.90;;;;;;;24.17;31.49;95121.06;5032145;28;20018;-70
2021/03/12 10:20:27;;;;;;;11.00;7.63;;;;;;;24.19;31.29;95124.00;5014442;28;20041;-69
2021/03/12 10:23:06;;;;;;;16.35;7.78;;;;;;;24.04;31.68;95112.75;5030875;28;20583;-70
2021/03/12 10:25:36;;;;;;;15.27;7.37;;;;;;;24.17;31.95;95131.22;5015598;28;20025;-70
2021/03/12 10:28:11;;;;;;;12.65;7.30;;;;;;;24.18;31.67;95127.25;5032280;28;20072;-70
2021/03/12 10:30:41;;;;;;;10.05;7.28;;;;;;;24.01;31.49;95097.41;5032840;28;20559;-77
2021/03/12 10:33:20;;;;;;;11.02;7.30;;;;;;;24.12;31.95;95102.75;5031601;28;20403;-74
2021/03/12 10:35:50;;;;;;;11.32;6.43;;;;;;;24.09;31.95;95092.84;5032629;28;20090;-74
2021/03/12 10:38:20;;;;;;;12.20;7.32;;;;;;;24.15;31.80;95112.63;5031147;28;20056;-75
2021/03/12 10:40:49;;;;;;;;;;;;;;;24.16;32.52;95119.56;5031483;28;20171;-75
2021/03/12 10:43:15;;;;;;;10.18;7.35;;;;;;;24.16;32.71;95127.75;5027300;28;19916;-75
2021/03/12 10:45:48;;;;;;;9.60;6.82;;;;;;;24.07;32.00;95117.19;5037227;28;20033;-75
2021/03/12 10:48:14;;;;;;;10.80;7.05;;;;;;;24.13;32.41;95125.31;5023133;28;20040;-75
2021/03/12 10:50:40;;;;;;;11.55;6.90;;;;;;;24.19;32.46;95113.09;5035065;28;20100;-72
2021/03/12 10:53:11;;;;;;;11.25;7.03;;;;;;;24.19;32.18;95106.91;5010310;28;20061;-73
2021/03/12 10:55:44;;;;;;;11.88;7.75;;;;;;;24.19;32.55;95102.19;5027105;28;20037;-72
2021/03/12 10:58:34;;;;;;;8.98;6.72;;;;;;;24.15;32.48;95090.81;5028559;28;20032;-83
2021/03/12 11:01:04;;;;;;;12.55;7.65;;;;;;;24.20;32.63;95092.75;5046078;28;20034;-74
2021/03/12 11:03:29;;;;;;;10.13;7.28;;;;;;;24.18;32.29;95084.31;5000648;28;20029;-74
2021/03/12 11:05:54;;;;;;;9.35;6.70;;;;;;;24.23;32.62;95086.28;5042683;28;20021;-74
2021/03/12 11:08:21;;;;;;;10.20;7.38;;;;;;;24.24;32.41;95071.34;5024018;28;20029;-79
2021/03/12 11:10:46;;;;;;;10.23;7.22;;;;;;;24.14;32.31;95045.69;5060995;28;20036;-73
2021/03/12 11:13:12;;;;;;;12.20;6.93;;;;;;;24.44;32.31;95070.91;5045218;28;20029;-76
2021/03/12 11:15:37;;;;;;;9.32;6.95;;;;;;;24.42;31.72;95054.31;5067211;28;20028;-76
2021/03/12 11:18:03;;;;;;;8.70;6.65;;;;;;;24.43;32.12;95051.06;5046919;28;20033;-75
2021/03/12 11:20:28;;;;;;;10.00;6.60;;;;;;;24.66;31.78;95067.91;5042574;28;20034;-76
2021/03/12 11:22:54;;;;;;;8.23;6.50;;;;;;;24.77;31.59;95084.88;5045182;28;20039;-75
2021/03/12 11:25:19;;;;;;;13.23;7.07;;;;;;;24.85;31.70;95058.44;5046325;28;20026;-76
2021/03/12 11:27:45;;;;;;;10.65;7.43;;;;;;;24.95;31.72;95046.63;5035753;28;20021;-78
2021/03/12 11:30:13;;;;;;;12.02;7.13;;;;;;;25.04;31.55;95068.16;5062211;28;20106;-78
2021/03/12 11:32:39;;;;;;;9.63;6.70;;;;;;;24.85;31.28;95015.47;5039063;28;20022;-77